createdAt,value
2023-03-16T00:02:11.870Z,0.57
2023-03-16T00:04:39.371Z,0.43
2023-03-16T00:07:11.378Z,0.68
2023-03-16T00:09:41.437Z,0.73
2023-03-16T00:12:19.644Z,0.63
2023-03-16T00:14:49.218Z,0.52
2023-03-16T00:17:19.318Z,0.65
2023-03-16T00:19:48.431Z,0.50
2023-03-16T00:22:16.405Z,0.60
2023-03-16T00:24:44.066Z,0.70
2023-03-16T00:27:14.987Z,0.70
2023-03-16T00:29:47.439Z,0.65
2023-03-16T00:32:20.111Z,0.93
2023-03-16T00:34:47.760Z,0.60
2023-03-16T00:37:17.562Z,0.70
2023-03-16T00:39:46.492Z,0.43
2023-03-16T00:42:16.009Z,0.65
2023-03-16T00:44:43.252Z,0.70
2023-03-16T00:47:14.831Z,0.75
2023-03-16T00:49:43.989Z,0.65
2023-03-16T00:52:15.972Z,0.60
2023-03-16T00:54:45.237Z,0.50
2023-03-16T00:57:14.593Z,0.50
2023-03-16T00:59:42.359Z,0.40
2023-03-16T01:02:10.690Z,0.73
2023-03-16T01:04:40.092Z,0.45
2023-03-16T01:07:13.574Z,0.45
2023-03-16T01:09:41.879Z,0.50
2023-03-16T01:12:11.955Z,0.50
2023-03-16T01:14:39.574Z,0.32
2023-03-16T01:17:08.920Z,0.60
2023-03-16T01:19:37.883Z,0.73
2023-03-16T01:22:06.692Z,0.70
2023-03-16T01:24:35.007Z,0.30
2023-03-16T01:27:04.614Z,0.40
2023-03-16T01:29:33.171Z,0.60
2023-03-16T01:32:01.549Z,0.80
2023-03-16T01:34:28.770Z,0.57
2023-03-16T01:36:56.506Z,0.60
2023-03-16T01:39:24.016Z,0.70
2023-03-16T01:41:51.204Z,0.40
2023-03-16T01:44:24.929Z,0.65
2023-03-16T01:46:52.090Z,0.55
2023-03-16T01:49:35.954Z,0.80
2023-03-16T01:52:08.720Z,0.60
2023-03-16T01:54:42.484Z,0.60
2023-03-16T01:57:15.161Z,1.15
2023-03-16T01:59:48.612Z,0.50
2023-03-16T02:02:21.507Z,0.65
2023-03-16T02:05:07.327Z,0.60
2023-03-16T02:07:46.611Z,0.40
2023-03-16T02:10:16.662Z,0.40
2023-03-16T02:12:44.700Z,0.60
2023-03-16T02:15:14.140Z,0.57
2023-03-16T02:17:43.982Z,0.65
2023-03-16T02:20:38.942Z,0.50
2023-03-16T02:23:18.761Z,0.40
2023-03-16T02:26:04.501Z,0.43
2023-03-16T02:28:48.704Z,0.70
2023-03-16T02:31:19.615Z,0.57
2023-03-16T02:33:48.989Z,0.60
2023-03-16T02:38:44.385Z,0.60
2023-03-16T02:41:17.532Z,0.80
2023-03-16T02:43:52.934Z,0.77
2023-03-16T02:49:11.239Z,0.50
2023-03-16T02:51:38.348Z,0.50
2023-03-16T02:54:05.508Z,0.55
2023-03-16T02:56:32.631Z,0.40
2023-03-16T02:58:59.765Z,0.70
2023-03-16T03:01:26.943Z,0.50
2023-03-16T03:03:54.105Z,0.40
2023-03-16T03:06:21.165Z,0.50
2023-03-16T03:08:48.248Z,0.50
2023-03-16T03:11:15.358Z,0.70
2023-03-16T03:13:44.668Z,0.77
2023-03-16T03:18:39.309Z,0.70
2023-03-16T03:21:07.024Z,0.50
2023-03-16T03:23:37.414Z,0.55
2023-03-16T03:26:05.183Z,0.60
2023-03-16T03:28:34.344Z,0.70
2023-03-16T03:31:04.337Z,0.50
2023-03-16T03:33:33.776Z,0.55
2023-03-16T03:36:02.417Z,0.68
2023-03-16T03:38:29.754Z,0.55
2023-03-16T03:41:00.384Z,0.50
2023-03-16T03:43:27.677Z,0.50
2023-03-16T03:45:59.071Z,0.52
2023-03-16T03:48:27.033Z,0.40
2023-03-16T03:50:54.738Z,0.40
2023-03-16T03:53:21.898Z,0.32
2023-03-16T03:55:50.270Z,0.40
2023-03-16T03:58:17.510Z,0.40
2023-03-16T04:00:44.970Z,0.60
2023-03-16T04:03:12.364Z,0.50
2023-03-16T04:05:39.623Z,0.40
2023-03-16T04:08:06.885Z,0.35
2023-03-16T04:10:34.017Z,0.32
2023-03-16T04:13:01.282Z,0.50
2023-03-16T04:15:28.453Z,0.32
2023-03-16T04:17:55.610Z,1.10
2023-03-16T04:20:23.733Z,0.52
2023-03-16T04:22:58.479Z,0.40
2023-03-16T04:25:27.609Z,0.43
2023-03-16T04:27:55.209Z,0.50
2023-03-16T04:30:26.583Z,0.47
2023-03-16T04:32:53.884Z,0.40
2023-03-16T04:35:22.287Z,0.50
2023-03-16T04:37:49.447Z,0.45
2023-03-16T04:40:16.895Z,0.50
2023-03-16T04:42:47.912Z,0.50
2023-03-16T04:45:16.269Z,0.63
2023-03-16T04:47:43.497Z,0.47
2023-03-16T04:50:12.287Z,0.90
2023-03-16T04:52:40.010Z,0.40
2023-03-16T04:55:07.949Z,0.45
2023-03-16T04:57:35.336Z,0.50
2023-03-16T05:00:09.947Z,0.45
2023-03-16T05:02:37.157Z,0.50
2023-03-16T05:05:05.820Z,0.57
2023-03-16T05:07:33.068Z,0.50
2023-03-16T05:10:00.228Z,0.60
2023-03-16T05:12:27.788Z,0.57
2023-03-16T05:14:55.200Z,0.50
2023-03-16T05:17:22.347Z,0.60
2023-03-16T05:19:49.571Z,0.60
2023-03-16T05:22:17.202Z,0.60
2023-03-16T05:24:44.351Z,0.95
2023-03-16T05:27:11.565Z,0.50
2023-03-16T05:29:38.747Z,0.70
2023-03-16T05:32:06.674Z,0.70
2023-03-16T05:34:33.961Z,0.70
2023-03-16T05:37:01.079Z,0.65
2023-03-16T05:39:28.856Z,0.60
2023-03-16T05:41:56.094Z,0.50
2023-03-16T05:44:23.801Z,0.60
2023-03-16T05:46:51.269Z,1.05
2023-03-16T05:49:18.675Z,0.90
2023-03-16T05:51:45.831Z,0.82
2023-03-16T05:54:12.955Z,0.57
2023-03-16T05:56:40.076Z,1.25
2023-03-16T05:59:07.221Z,0.50
2023-03-16T06:01:34.253Z,0.80
2023-03-16T06:04:03.076Z,0.82
2023-03-16T06:06:30.212Z,1.20
2023-03-16T06:08:57.147Z,0.60
2023-03-16T06:11:24.173Z,0.93
2023-03-16T06:13:51.283Z,1.10
2023-03-16T06:16:18.291Z,0.80
2023-03-16T06:18:45.365Z,0.80
2023-03-16T06:21:12.399Z,0.82
2023-03-16T06:23:39.434Z,0.82
2023-03-16T06:26:06.506Z,0.40
2023-03-16T06:28:33.597Z,1.10
2023-03-16T06:31:00.961Z,1.00
2023-03-16T06:33:28.180Z,1.08
2023-03-16T06:35:55.521Z,0.50
2023-03-16T06:38:22.601Z,1.08
2023-03-16T06:40:54.152Z,0.35
2023-03-16T06:43:21.256Z,0.60
2023-03-16T06:45:48.267Z,0.80
2023-03-16T06:48:15.408Z,0.65
2023-03-16T06:50:42.407Z,1.00
2023-03-16T06:53:09.408Z,0.50
2023-03-16T06:55:36.508Z,0.98
2023-03-16T06:58:03.733Z,1.45
2023-03-16T07:00:31.763Z,1.08
2023-03-16T07:03:00.446Z,1.00
2023-03-16T07:05:28.046Z,1.17
2023-03-16T07:07:55.131Z,1.20
2023-03-16T07:10:22.185Z,1.10
2023-03-16T07:12:50.354Z,1.45
2023-03-16T07:15:17.717Z,1.45
2023-03-16T07:17:44.766Z,1.20
2023-03-16T07:20:12.898Z,1.38
2023-03-16T07:22:41.861Z,0.90
2023-03-16T07:25:11.354Z,0.80
2023-03-16T07:27:39.042Z,0.85
2023-03-16T07:30:06.588Z,0.90
2023-03-16T07:32:33.607Z,1.20
2023-03-16T07:35:00.821Z,1.10
2023-03-16T07:37:27.931Z,1.13
2023-03-16T07:39:55.037Z,1.73
2023-03-16T07:42:22.787Z,1.02
2023-03-16T07:44:51.788Z,1.02
2023-03-16T07:47:19.142Z,1.00
2023-03-16T07:49:46.310Z,0.60
2023-03-16T07:52:13.775Z,1.17
2023-03-16T07:54:41.536Z,1.10
2023-03-16T07:57:08.877Z,1.60
2023-03-16T07:59:35.857Z,1.30
2023-03-16T08:02:03.089Z,1.20
2023-03-16T08:04:30.196Z,1.00
2023-03-16T08:07:00.330Z,1.13
2023-03-16T08:09:27.808Z,1.00
2023-03-16T08:11:54.996Z,5.30
2023-03-16T08:14:21.982Z,1.40
2023-03-16T08:16:49.049Z,2.08
2023-03-16T08:19:17.417Z,1.02
2023-03-16T08:21:59.972Z,1.50
2023-03-16T08:24:29.619Z,1.20
2023-03-16T08:26:57.919Z,1.35
2023-03-16T08:29:26.233Z,1.50
2023-03-16T08:31:57.600Z,1.98
2023-03-16T08:34:25.892Z,1.52
2023-03-16T08:36:53.915Z,1.63
2023-03-16T08:39:21.687Z,1.52
2023-03-16T08:41:48.769Z,1.52
2023-03-16T08:44:15.789Z,1.50
2023-03-16T08:46:42.983Z,1.38
2023-03-16T08:49:10.164Z,2.40
2023-03-16T08:51:37.304Z,1.20
2023-03-16T08:54:05.504Z,1.30
2023-03-16T08:56:32.467Z,1.40
2023-03-16T08:58:59.857Z,1.00
2023-03-16T09:01:27.666Z,1.35
2023-03-16T09:03:55.117Z,0.70
2023-03-16T09:06:22.479Z,0.40
2023-03-16T09:08:49.526Z,1.40
2023-03-16T09:11:18.852Z,0.70
2023-03-16T09:13:47.346Z,0.50
2023-03-16T09:16:16.227Z,0.60
2023-03-16T09:18:43.820Z,0.70
2023-03-16T09:21:13.772Z,0.40
2023-03-16T09:23:42.834Z,0.70
2023-03-16T09:26:12.451Z,1.25
2023-03-16T09:28:42.299Z,0.50
2023-03-16T09:31:15.550Z,0.80
2023-03-16T09:33:42.979Z,0.60
2023-03-16T09:36:11.871Z,0.57
2023-03-16T09:38:39.489Z,1.15
2023-03-16T09:41:34.497Z,1.08
2023-03-16T09:44:26.281Z,0.80
2023-03-16T09:46:54.802Z,0.60
2023-03-16T09:49:27.615Z,0.90
2023-03-16T09:52:14.708Z,0.70
2023-03-16T09:54:59.861Z,0.70
2023-03-16T09:57:28.498Z,0.60
2023-03-16T10:00:14.376Z,1.17
2023-03-16T10:03:13.632Z,0.60
2023-03-16T10:05:40.983Z,1.00
2023-03-16T10:08:16.802Z,0.63
2023-03-16T10:11:01.974Z,0.45
2023-03-16T10:13:42.555Z,0.55
2023-03-16T10:16:16.123Z,0.88
2023-03-16T10:18:48.750Z,0.40
2023-03-16T10:21:19.464Z,0.50
2023-03-16T10:23:48.703Z,0.57
2023-03-16T10:26:26.260Z,0.55
2023-03-16T10:28:55.191Z,0.60
2023-03-16T10:31:23.318Z,0.50
2023-03-16T10:33:58.520Z,0.75
2023-03-16T10:36:33.628Z,0.50
2023-03-16T10:39:08.517Z,0.80
2023-03-16T10:41:38.217Z,0.50
2023-03-16T10:44:23.544Z,0.50
2023-03-16T10:47:03.378Z,0.80
2023-03-16T10:49:44.571Z,0.50
2023-03-16T10:52:24.928Z,0.73
2023-03-16T10:54:56.362Z,0.60
2023-03-16T10:57:33.490Z,1.05
2023-03-16T11:00:28.977Z,0.90
2023-03-16T11:02:59.728Z,0.52
2023-03-16T11:05:34.909Z,0.60
2023-03-16T11:08:01.939Z,0.70
2023-03-16T11:10:40.548Z,1.00
2023-03-16T11:13:21.371Z,0.50
2023-03-16T11:15:59.041Z,1.00
2023-03-16T11:18:53.559Z,0.60
2023-03-16T11:21:46.763Z,0.90
2023-03-16T11:24:34.741Z,0.80
2023-03-16T11:27:08.926Z,0.82
2023-03-16T11:29:35.938Z,0.90
2023-03-16T11:32:15.363Z,0.63
2023-03-16T11:34:44.356Z,0.50
2023-03-16T11:37:21.743Z,0.70
2023-03-16T11:40:00.573Z,0.65
2023-03-16T11:42:38.583Z,0.60
2023-03-16T11:45:11.242Z,0.60
2023-03-16T11:48:22.635Z,0.50
2023-03-16T11:51:15.678Z,0.40
2023-03-16T11:54:14.419Z,0.40
2023-03-16T11:56:52.942Z,0.80
2023-03-16T11:59:38.142Z,0.57
2023-03-16T12:02:21.495Z,0.60
2023-03-16T12:04:56.728Z,0.60
2023-03-16T12:07:33.535Z,0.38
2023-03-16T12:10:14.000Z,0.57
2023-03-16T12:12:53.473Z,0.60
2023-03-16T12:15:45.070Z,0.50
2023-03-16T12:18:19.199Z,0.70
2023-03-16T12:20:55.272Z,0.90
2023-03-16T12:23:34.585Z,0.68
2023-03-16T12:26:03.728Z,0.32
2023-03-16T12:28:33.362Z,0.30
2023-03-16T12:31:12.315Z,0.52
2023-03-16T12:33:57.305Z,0.70
2023-03-16T12:36:41.843Z,0.57
2023-03-16T12:39:21.409Z,0.63
2023-03-16T12:42:19.607Z,0.52
2023-03-16T12:44:52.558Z,1.00
2023-03-16T12:47:27.235Z,3.10
2023-03-16T12:49:56.515Z,1.52
2023-03-16T12:52:23.596Z,0.90
2023-03-16T12:55:07.649Z,1.25
2023-03-16T12:57:35.864Z,0.80
2023-03-16T13:00:09.012Z,0.90
2023-03-16T13:02:39.224Z,0.60
2023-03-16T13:05:10.795Z,0.50
2023-03-16T13:07:46.408Z,0.68
2023-03-16T13:10:15.772Z,0.47
2023-03-16T13:12:44.306Z,0.55
2023-03-16T13:15:21.440Z,0.68
2023-03-16T13:17:51.036Z,0.52
2023-03-16T13:20:31.377Z,0.30
2023-03-16T13:23:10.069Z,0.50
2023-03-16T13:25:45.051Z,0.57
2023-03-16T13:28:17.112Z,0.50
2023-03-16T13:30:48.798Z,0.60
2023-03-16T13:33:38.330Z,0.75
2023-03-16T13:36:09.233Z,0.70
2023-03-16T13:38:37.523Z,0.60
2023-03-16T13:41:10.326Z,0.80
2023-03-16T13:43:44.018Z,0.73
2023-03-16T13:46:19.017Z,0.57
2023-03-16T13:48:48.417Z,0.60
2023-03-16T13:51:18.463Z,0.50
2023-03-16T13:53:45.723Z,0.50
2023-03-16T13:56:23.862Z,0.80
2023-03-16T13:58:52.862Z,0.60
2023-03-16T14:01:29.228Z,0.60
2023-03-16T14:03:59.939Z,0.90
2023-03-16T14:06:34.193Z,0.60
2023-03-16T14:09:22.693Z,0.65
2023-03-16T14:11:49.884Z,1.30
2023-03-16T14:14:23.754Z,1.00
2023-03-16T14:16:52.550Z,1.20
2023-03-16T14:19:25.870Z,1.05
2023-03-16T14:21:53.066Z,0.43
2023-03-16T14:24:30.734Z,1.05
2023-03-16T14:27:09.002Z,0.93
2023-03-16T14:29:37.046Z,2.20
2023-03-16T14:32:21.911Z,1.40
2023-03-16T14:34:50.933Z,0.65
2023-03-16T14:39:58.196Z,0.40
2023-03-16T14:42:29.584Z,0.55
2023-03-16T14:44:59.916Z,0.70
2023-03-16T14:47:31.001Z,0.40
2023-03-16T14:50:06.177Z,0.63
2023-03-16T14:52:33.991Z,0.95
2023-03-16T14:55:05.669Z,0.47
2023-03-16T14:57:32.657Z,0.60
2023-03-16T14:59:59.586Z,0.40
2023-03-16T15:02:32.518Z,0.30
2023-03-16T15:05:01.206Z,0.45
2023-03-16T15:07:34.727Z,1.00
2023-03-16T15:10:22.475Z,1.00
2023-03-16T15:13:04.307Z,0.40
2023-03-16T15:15:32.548Z,0.50
2023-03-16T15:18:00.214Z,0.40
2023-03-16T15:20:35.277Z,0.70
2023-03-16T15:23:04.835Z,0.50
2023-03-16T15:25:36.547Z,0.77
2023-03-16T15:28:11.642Z,0.60
2023-03-16T15:30:39.264Z,0.65
2023-03-16T15:33:06.803Z,0.40
2023-03-16T15:35:34.323Z,0.50
2023-03-16T15:38:05.047Z,0.57
2023-03-16T15:40:32.633Z,0.30
2023-03-16T15:42:59.604Z,0.55
2023-03-16T15:45:27.246Z,0.45
2023-03-16T15:47:55.470Z,0.82
2023-03-16T15:50:24.904Z,0.50
2023-03-16T15:53:00.047Z,0.60
2023-03-16T15:55:35.342Z,0.60
2023-03-16T16:00:37.401Z,0.25
2023-03-16T16:03:06.624Z,0.47
2023-03-16T16:08:00.794Z,1.02
2023-03-16T16:10:28.993Z,0.68
2023-03-16T16:12:57.078Z,0.50
2023-03-16T16:15:30.447Z,1.00
2023-03-16T16:18:19.989Z,0.57
2023-03-16T16:20:45.172Z,0.55
2023-03-16T16:23:12.707Z,0.40
2023-03-16T16:25:42.142Z,0.50
2023-03-16T16:28:30.889Z,0.63
2023-03-16T16:30:59.684Z,0.40
2023-03-16T16:33:30.094Z,0.30
2023-03-16T16:35:59.864Z,0.55
2023-03-16T16:38:27.004Z,0.35
2023-03-16T16:40:57.997Z,0.70
2023-03-16T16:43:30.746Z,0.60
2023-03-16T16:45:59.901Z,0.40
2023-03-16T16:48:32.992Z,0.55
2023-03-16T16:51:01.422Z,0.50
2023-03-16T16:53:29.206Z,0.85
2023-03-16T17:01:42.528Z,0.60
2023-03-16T17:04:16.627Z,0.50
2023-03-16T17:06:45.616Z,0.88
2023-03-16T17:09:15.753Z,0.47
2023-03-16T17:11:45.523Z,1.50
2023-03-16T17:14:16.960Z,1.63
2023-03-16T17:16:44.828Z,1.60
2023-03-16T17:19:27.694Z,2.60
2023-03-16T17:21:57.403Z,2.08
2023-03-16T17:24:25.045Z,1.70
2023-03-16T17:26:54.911Z,1.42
2023-03-16T17:29:26.078Z,1.42
2023-03-16T17:31:53.528Z,2.30
2023-03-16T17:34:29.141Z,2.10
2023-03-16T17:36:56.422Z,1.88
2023-03-16T17:39:32.326Z,1.88
2023-03-16T17:42:01.166Z,1.30
2023-03-16T17:44:38.190Z,1.33
2023-03-16T17:47:18.549Z,2.03
2023-03-16T17:49:48.749Z,1.30
2023-03-16T17:52:18.822Z,1.77
2023-03-16T17:54:47.483Z,1.80
2023-03-16T17:57:22.216Z,2.13
2023-03-16T17:59:49.361Z,2.50
2023-03-16T18:02:38.592Z,2.60
2023-03-16T18:05:09.607Z,3.50
2023-03-16T18:07:36.823Z,4.45
2023-03-16T18:10:03.992Z,2.30
2023-03-16T18:12:31.696Z,2.38
2023-03-16T18:14:58.773Z,4.50
2023-03-16T18:17:33.465Z,5.18
2023-03-16T18:20:00.525Z,10.02
2023-03-16T18:22:27.966Z,7.68
2023-03-16T18:24:55.836Z,6.32
2023-03-16T18:27:22.891Z,5.45
2023-03-16T18:29:49.953Z,5.38
2023-03-16T18:32:23.228Z,5.70
2023-03-16T18:34:51.795Z,4.80
2023-03-16T18:37:28.445Z,3.08
2023-03-16T18:39:55.451Z,2.78
2023-03-16T18:42:25.818Z,3.85
2023-03-16T18:44:53.333Z,4.68
2023-03-16T18:47:22.914Z,4.25
2023-03-16T18:49:53.448Z,4.15
2023-03-16T18:52:23.749Z,4.65
2023-03-16T18:54:52.967Z,3.00
2023-03-16T18:59:49.409Z,2.47
2023-03-16T19:02:37.510Z,2.60
2023-03-16T19:05:11.192Z,2.67
2023-03-16T19:07:44.323Z,2.40
2023-03-16T19:10:35.500Z,2.55
2023-03-16T19:13:02.648Z,2.78
2023-03-16T19:15:32.592Z,1.80
2023-03-16T19:18:00.004Z,1.90
2023-03-16T19:20:29.911Z,1.95
2023-03-16T19:23:03.446Z,2.10
2023-03-16T19:25:34.695Z,2.08
2023-03-16T19:28:04.166Z,2.47
2023-03-16T19:30:32.078Z,15.70
2023-03-16T19:33:00.038Z,2.97
2023-03-16T19:35:44.909Z,2.70
2023-03-16T19:38:15.997Z,2.33
2023-03-16T19:40:43.144Z,2.65
2023-03-16T19:43:18.849Z,2.20
2023-03-16T19:45:46.908Z,2.55
2023-03-16T19:48:21.178Z,2.10
2023-03-16T19:50:50.211Z,2.42
2023-03-16T19:53:20.080Z,2.70
2023-03-16T19:55:48.889Z,4.45
2023-03-16T19:58:28.759Z,3.90
2023-03-16T20:00:58.051Z,3.13
2023-03-16T20:03:25.630Z,2.50
2023-03-16T20:05:52.731Z,2.67
2023-03-16T20:08:29.466Z,1.67
2023-03-16T20:11:02.496Z,2.40
2023-03-16T20:13:31.473Z,3.85
2023-03-16T20:15:58.830Z,3.10
2023-03-16T20:18:26.518Z,8.75
2023-03-16T20:20:53.598Z,5.07
2023-03-16T20:23:26.486Z,2.75
2023-03-16T20:25:56.518Z,4.03
2023-03-16T20:28:27.786Z,8.70
2023-03-16T20:30:54.845Z,5.13
2023-03-16T20:33:24.282Z,3.30
2023-03-16T20:35:55.281Z,6.78
2023-03-16T20:38:23.213Z,2.10
2023-03-16T20:40:52.607Z,2.00
2023-03-16T20:43:31.485Z,3.50
2023-03-16T20:46:01.364Z,2.50
2023-03-16T20:48:29.333Z,1.60
2023-03-16T20:50:58.171Z,1.77
2023-03-16T20:53:25.211Z,1.90
2023-03-16T20:55:52.982Z,1.50
2023-03-16T20:58:30.378Z,1.38
2023-03-16T21:00:57.875Z,1.52
2023-03-16T21:03:27.665Z,1.50
2023-03-16T21:05:58.451Z,1.40
2023-03-16T21:08:26.992Z,1.40
2023-03-16T21:10:56.796Z,1.95
2023-03-16T21:13:31.622Z,1.95
2023-03-16T21:16:01.739Z,1.98
2023-03-16T21:18:30.533Z,2.80
2023-03-16T21:20:58.837Z,3.00
2023-03-16T21:23:26.168Z,4.40
2023-03-16T21:25:56.835Z,2.97
2023-03-16T21:28:27.783Z,2.45
2023-03-16T21:30:57.446Z,2.03
2023-03-16T21:33:33.492Z,1.88
2023-03-16T21:36:02.124Z,1.90
2023-03-16T21:38:30.638Z,1.38
2023-03-16T21:40:58.346Z,2.35
2023-03-16T21:43:27.505Z,2.17
2023-03-16T21:45:56.720Z,2.83
2023-03-16T21:48:35.921Z,1.92
2023-03-16T21:51:03.149Z,1.73
2023-03-16T21:53:34.493Z,0.93
2023-03-16T21:56:01.627Z,1.73
2023-03-16T21:58:28.687Z,1.48
2023-03-16T22:00:57.275Z,1.40
2023-03-16T22:03:50.809Z,1.30
2023-03-16T22:08:45.832Z,1.30
2023-03-16T22:11:18.826Z,1.17
2023-03-16T22:13:46.630Z,1.40
2023-03-16T22:16:16.524Z,1.20
2023-03-16T22:18:46.216Z,1.25
2023-03-16T22:21:22.758Z,1.42
2023-03-16T22:23:49.978Z,1.33
2023-03-16T22:26:20.429Z,1.20
2023-03-16T22:28:48.374Z,1.30
2023-03-16T22:31:20.144Z,1.40
2023-03-16T22:33:48.856Z,2.00
2023-03-16T22:36:18.871Z,2.92
2023-03-16T22:38:50.483Z,2.78
2023-03-16T22:41:20.646Z,2.50
2023-03-16T22:43:48.067Z,2.58
2023-03-16T22:46:24.534Z,2.10
2023-03-16T22:48:53.074Z,2.03
2023-03-16T22:51:28.616Z,2.53
2023-03-16T22:54:24.438Z,2.10
2023-03-16T22:56:52.232Z,1.73
2023-03-16T22:59:22.312Z,1.40
2023-03-16T23:01:50.582Z,1.40
2023-03-16T23:04:30.314Z,1.42
2023-03-16T23:06:58.527Z,1.20
2023-03-16T23:09:26.477Z,1.20
2023-03-16T23:11:56.764Z,1.33
2023-03-16T23:14:27.619Z,1.65
2023-03-16T23:16:55.548Z,1.50
2023-03-16T23:19:32.920Z,0.95
2023-03-16T23:22:05.566Z,1.30
2023-03-16T23:24:33.974Z,1.60
2023-03-16T23:27:02.062Z,1.85
2023-03-16T23:29:29.935Z,2.03
2023-03-16T23:31:57.829Z,1.90
2023-03-16T23:34:27.240Z,1.90
2023-03-16T23:36:54.592Z,1.98
2023-03-16T23:39:21.701Z,1.50
2023-03-16T23:41:50.726Z,1.50
2023-03-16T23:44:20.973Z,1.67
2023-03-16T23:46:48.172Z,1.65
2023-03-16T23:49:25.802Z,1.20
2023-03-16T23:51:55.748Z,1.10
2023-03-16T23:54:25.608Z,0.93
2023-03-16T23:56:52.729Z,1.08
2023-03-16T23:59:21.073Z,0.90
